sensor_id;sensor_type;location;lat;lon;timestamp;pressure;altitude;pressure_sealevel;temperature;humidity
52923;BME280;38796;42.702;23.306;2023-01-28T00:01:16;94632.25;;;-1.04;100.00
52923;BME280;38796;42.702;23.306;2023-01-28T00:03:15;94636.50;;;-1.03;100.00
52923;BME280;38796;42.702;23.306;2023-01-28T00:05:14;94634.75;;;-1.03;100.00
52923;BME280;38796;42.702;23.306;2023-01-28T00:07:14;94643.25;;;-1.01;100.00
52923;BME280;38796;42.702;23.306;2023-01-28T00:09:12;94643.41;;;-1.04;100.00
52923;BME280;38796;42.702;23.306;2023-01-28T00:11:12;94642.50;;;-1.03;100.00
52923;BME280;38796;42.702;23.306;2023-01-28T00:13:11;94645.84;;;-1.01;100.00
52923;BME280;38796;42.702;23.306;2023-01-28T00:15:10;94652.81;;;-1.03;100.00
52923;BME280;38796;42.702;23.306;2023-01-28T00:17:09;94656.34;;;-1.04;100.00
52923;BME280;38796;42.702;23.306;2023-01-28T00:19:07;94653.06;;;-1.07;100.00
52923;BME280;38796;42.702;23.306;2023-01-28T00:21:09;94660.88;;;-1.09;100.00
52923;BME280;38796;42.702;23.306;2023-01-28T00:23:09;94656.50;;;-1.07;100.00
52923;BME280;38796;42.702;23.306;2023-01-28T00:25:08;94645.84;;;-1.01;100.00
52923;BME280;38796;42.702;23.306;2023-01-28T00:27:06;94643.84;;;-0.95;100.00
52923;BME280;38796;42.702;23.306;2023-01-28T00:29:05;94643.53;;;-0.89;100.00
52923;BME280;38796;42.702;23.306;2023-01-28T00:31:05;94657.19;;;-0.87;100.00
52923;BME280;38796;42.702;23.306;2023-01-28T00:33:05;94656.09;;;-0.83;100.00
52923;BME280;38796;42.702;23.306;2023-01-28T00:35:04;94665.88;;;-0.88;100.00
52923;BME280;38796;42.702;23.306;2023-01-28T00:37:03;94671.34;;;-0.94;100.00
52923;BME280;38796;42.702;23.306;2023-01-28T00:39:05;94670.81;;;-1.01;100.00
52923;BME280;38796;42.702;23.306;2023-01-28T00:41:07;94666.81;;;-1.07;100.00
52923;BME280;38796;42.702;23.306;2023-01-28T00:43:06;94670.34;;;-1.08;100.00
52923;BME280;38796;42.702;23.306;2023-01-28T00:45:06;94672.00;;;-1.07;100.00
52923;BME280;38796;42.702;23.306;2023-01-28T00:47:04;94675.31;;;-1.05;100.00
52923;BME280;38796;42.702;23.306;2023-01-28T00:49:02;94676.09;;;-1.03;100.00
52923;BME280;38796;42.702;23.306;2023-01-28T00:51:03;94670.00;;;-1.02;100.00
52923;BME280;38796;42.702;23.306;2023-01-28T00:53:01;94676.84;;;-1.01;100.00
52923;BME280;38796;42.702;23.306;2023-01-28T00:55:01;94676.00;;;-1.01;100.00
52923;BME280;38796;42.702;23.306;2023-01-28T00:56:59;94673.34;;;-1.00;100.00
52923;BME280;38796;42.702;23.306;2023-01-28T00:58:58;94678.66;;;-1.03;100.00
52923;BME280;38796;42.702;23.306;2023-01-28T01:00:56;94677.91;;;-1.05;100.00
52923;BME280;38796;42.702;23.306;2023-01-28T01:02:54;94677.06;;;-1.05;100.00
52923;BME280;38796;42.702;23.306;2023-01-28T01:04:53;94679.75;;;-1.07;100.00
52923;BME280;38796;42.702;23.306;2023-01-28T01:06:57;94673.81;;;-1.09;100.00
52923;BME280;38796;42.702;23.306;2023-01-28T01:08:55;94671.38;;;-1.12;100.00
52923;BME280;38796;42.702;23.306;2023-01-28T01:10:59;94669.47;;;-1.08;100.00
52923;BME280;38796;42.702;23.306;2023-01-28T01:13:00;94673.81;;;-1.09;100.00
52923;BME280;38796;42.702;23.306;2023-01-28T01:14:58;94667.66;;;-1.06;100.00
52923;BME280;38796;42.702;23.306;2023-01-28T01:16:56;94673.59;;;-1.04;100.00
52923;BME280;38796;42.702;23.306;2023-01-28T01:18:55;94673.25;;;-0.98;100.00
52923;BME280;38796;42.702;23.306;2023-01-28T01:20:55;94675.94;;;-1.00;100.00
52923;BME280;38796;42.702;23.306;2023-01-28T01:22:55;94671.69;;;-1.01;100.00
52923;BME280;38796;42.702;23.306;2023-01-28T01:24:55;94685.28;;;-0.97;100.00
52923;BME280;38796;42.702;23.306;2023-01-28T01:26:55;94676.50;;;-0.94;100.00
52923;BME280;38796;42.702;23.306;2023-01-28T01:28:53;94679.09;;;-0.94;100.00
52923;BME280;38796;42.702;23.306;2023-01-28T01:30:58;94678.00;;;-0.90;100.00
52923;BME280;38796;42.702;23.306;2023-01-28T01:32:57;94683.03;;;-0.87;100.00
52923;BME280;38796;42.702;23.306;2023-01-28T01:34:55;94685.06;;;-0.77;100.00
52923;BME280;38796;42.702;23.306;2023-01-28T01:36:54;94689.06;;;-0.71;100.00
52923;BME280;38796;42.702;23.306;2023-01-28T01:38:53;94686.50;;;-0.71;100.00
52923;BME280;38796;42.702;23.306;2023-01-28T01:40:55;94684.66;;;-0.69;100.00
52923;BME280;38796;42.702;23.306;2023-01-28T01:42:55;94696.75;;;-0.69;100.00
52923;BME280;38796;42.702;23.306;2023-01-28T01:44:56;94690.91;;;-0.73;99.76
52923;BME280;38796;42.702;23.306;2023-01-28T01:46:55;94686.44;;;-0.87;100.00
52923;BME280;38796;42.702;23.306;2023-01-28T01:48:55;94686.69;;;-0.91;100.00
52923;BME280;38796;42.702;23.306;2023-01-28T01:50:57;94685.97;;;-0.93;100.00
52923;BME280;38796;42.702;23.306;2023-01-28T01:53:02;94686.69;;;-0.91;100.00
52923;BME280;38796;42.702;23.306;2023-01-28T01:55:06;94693.06;;;-0.81;99.45
52923;BME280;38796;42.702;23.306;2023-01-28T01:57:09;94682.72;;;-0.81;99.78
52923;BME280;38796;42.702;23.306;2023-01-28T01:59:14;94683.41;;;-0.62;98.56
52923;BME280;38796;42.702;23.306;2023-01-28T02:01:15;94688.56;;;-0.62;98.43
52923;BME280;38796;42.702;23.306;2023-01-28T02:03:16;94685.41;;;-0.67;98.94
52923;BME280;38796;42.702;23.306;2023-01-28T02:05:19;94694.72;;;-0.80;99.18
52923;BME280;38796;42.702;23.306;2023-01-28T02:07:18;94695.38;;;-0.92;99.87
52923;BME280;38796;42.702;23.306;2023-01-28T02:09:22;94695.63;;;-0.97;100.00
52923;BME280;38796;42.702;23.306;2023-01-28T02:11:22;94689.94;;;-1.04;100.00
52923;BME280;38796;42.702;23.306;2023-01-28T02:13:26;94696.91;;;-1.06;100.00
52923;BME280;38796;42.702;23.306;2023-01-28T02:15:30;94708.91;;;-1.05;100.00
52923;BME280;38796;42.702;23.306;2023-01-28T02:17:28;94709.00;;;-1.06;100.00
52923;BME280;38796;42.702;23.306;2023-01-28T02:19:32;94708.56;;;-1.14;100.00
52923;BME280;38796;42.702;23.306;2023-01-28T02:22:00;94699.13;;;-1.15;100.00
52923;BME280;38796;42.702;23.306;2023-01-28T02:27:00;94699.97;;;-1.15;100.00
52923;BME280;38796;42.702;23.306;2023-01-28T02:29:09;94705.28;;;-1.18;100.00
52923;BME280;38796;42.702;23.306;2023-01-28T02:31:15;94714.03;;;-1.21;100.00
52923;BME280;38796;42.702;23.306;2023-01-28T02:33:18;94704.63;;;-1.22;100.00
52923;BME280;38796;42.702;23.306;2023-01-28T02:35:28;94711.38;;;-1.19;100.00
52923;BME280;38796;42.702;23.306;2023-01-28T02:37:34;94711.16;;;-1.14;100.00
52923;BME280;38796;42.702;23.306;2023-01-28T02:39:39;94699.78;;;-1.12;100.00
52923;BME280;38796;42.702;23.306;2023-01-28T02:41:40;94705.88;;;-1.13;100.00
52923;BME280;38796;42.702;23.306;2023-01-28T02:43:44;94711.72;;;-1.09;100.00
52923;BME280;38796;42.702;23.306;2023-01-28T02:45:44;94701.41;;;-1.09;100.00
52923;BME280;38796;42.702;23.306;2023-01-28T02:48:00;94713.50;;;-1.10;100.00
52923;BME280;38796;42.702;23.306;2023-01-28T02:50:00;94711.88;;;-1.12;100.00
52923;BME280;38796;42.702;23.306;2023-01-28T02:52:12;94701.69;;;-1.15;100.00
52923;BME280;38796;42.702;23.306;2023-01-28T02:54:14;94705.28;;;-1.18;100.00
52923;BME280;38796;42.702;23.306;2023-01-28T02:56:19;94707.88;;;-1.18;100.00
52923;BME280;38796;42.702;23.306;2023-01-28T02:58:34;94709.44;;;-1.15;100.00
52923;BME280;38796;42.702;23.306;2023-01-28T03:00:42;94711.53;;;-1.22;100.00
52923;BME280;38796;42.702;23.306;2023-01-28T03:02:45;94705.00;;;-1.29;100.00
52923;BME280;38796;42.702;23.306;2023-01-28T03:04:49;94707.34;;;-1.25;100.00
52923;BME280;38796;42.702;23.306;2023-01-28T03:06:54;94713.44;;;-1.26;100.00
52923;BME280;38796;42.702;23.306;2023-01-28T03:08:58;94712.44;;;-1.23;100.00
52923;BME280;38796;42.702;23.306;2023-01-28T03:11:16;94704.66;;;-1.06;100.00
52923;BME280;38796;42.702;23.306;2023-01-28T03:13:32;94712.66;;;-1.10;99.64
52923;BME280;38796;42.702;23.306;2023-01-28T03:15:48;94715.28;;;-1.12;99.98
52923;BME280;38796;42.702;23.306;2023-01-28T03:18:09;94726.41;;;-1.10;99.30
52923;BME280;38796;42.702;23.306;2023-01-28T03:20:33;94717.16;;;-1.14;99.34
52923;BME280;38796;42.702;23.306;2023-01-28T03:22:54;94715.63;;;-1.18;99.54
52923;BME280;38796;42.702;23.306;2023-01-28T03:25:12;94715.09;;;-1.25;100.00
52923;BME280;38796;42.702;23.306;2023-01-28T03:27:35;94723.22;;;-1.32;100.00
52923;BME280;38796;42.702;23.306;2023-01-28T03:29:57;94718.91;;;-1.32;100.00
52923;BME280;38796;42.702;23.306;2023-01-28T03:32:14;94713.81;;;-1.33;100.00
52923;BME280;38796;42.702;23.306;2023-01-28T03:34:32;94722.56;;;-1.36;100.00
52923;BME280;38796;42.702;23.306;2023-01-28T03:36:49;94718.81;;;-1.30;100.00
52923;BME280;38796;42.702;23.306;2023-01-28T03:39:13;94729.09;;;-1.29;100.00
52923;BME280;38796;42.702;23.306;2023-01-28T03:41:19;94729.81;;;-1.27;100.00
52923;BME280;38796;42.702;23.306;2023-01-28T03:43:19;94725.81;;;-1.32;100.00
52923;BME280;38796;42.702;23.306;2023-01-28T03:45:18;94720.81;;;-1.35;100.00
52923;BME280;38796;42.702;23.306;2023-01-28T03:47:18;94721.53;;;-1.16;99.77
52923;BME280;38796;42.702;23.306;2023-01-28T03:49:18;94724.88;;;-1.14;100.00
52923;BME280;38796;42.702;23.306;2023-01-28T03:51:18;94730.97;;;-1.15;99.36
52923;BME280;38796;42.702;23.306;2023-01-28T03:53:17;94729.38;;;-1.17;99.65
52923;BME280;38796;42.702;23.306;2023-01-28T03:55:20;94730.44;;;-1.22;99.92
52923;BME280;38796;42.702;23.306;2023-01-28T03:57:24;94731.44;;;-1.24;100.00
52923;BME280;38796;42.702;23.306;2023-01-28T03:59:23;94729.91;;;-1.28;100.00
52923;BME280;38796;42.702;23.306;2023-01-28T04:01:21;94732.75;;;-1.33;100.00
52923;BME280;38796;42.702;23.306;2023-01-28T04:03:20;94736.38;;;-1.37;100.00
52923;BME280;38796;42.702;23.306;2023-01-28T04:05:27;94742.44;;;-1.38;100.00
52923;BME280;38796;42.702;23.306;2023-01-28T04:07:29;94738.34;;;-1.42;100.00
52923;BME280;38796;42.702;23.306;2023-01-28T04:09:37;94737.06;;;-1.33;100.00
52923;BME280;38796;42.702;23.306;2023-01-28T04:12:11;94738.72;;;-1.32;100.00
52923;BME280;38796;42.702;23.306;2023-01-28T04:14:15;94749.97;;;-1.33;100.00
52923;BME280;38796;42.702;23.306;2023-01-28T04:16:19;94746.72;;;-1.37;100.00
52923;BME280;38796;42.702;23.306;2023-01-28T04:18:18;94744.19;;;-1.38;100.00
52923;BME280;38796;42.702;23.306;2023-01-28T04:20:25;94745.41;;;-1.28;100.00
52923;BME280;38796;42.702;23.306;2023-01-28T04:22:37;94751.03;;;-1.20;100.00
52923;BME280;38796;42.702;23.306;2023-01-28T04:24:38;94754.00;;;-1.28;99.65
52923;BME280;38796;42.702;23.306;2023-01-28T04:26:37;94754.81;;;-1.27;99.56
52923;BME280;38796;42.702;23.306;2023-01-28T04:28:35;94754.09;;;-1.29;99.75
52923;BME280;38796;42.702;23.306;2023-01-28T04:30:34;94769.56;;;-1.12;99.00
52923;BME280;38796;42.702;23.306;2023-01-28T04:32:42;94762.13;;;-1.18;99.19
52923;BME280;38796;42.702;23.306;2023-01-28T04:35:00;94762.50;;;-1.26;99.33
52923;BME280;38796;42.702;23.306;2023-01-28T04:37:20;94762.72;;;-1.30;100.00
52923;BME280;38796;42.702;23.306;2023-01-28T04:39:45;94768.66;;;-1.46;100.00
52923;BME280;38796;42.702;23.306;2023-01-28T04:42:02;94771.38;;;-1.49;100.00
52923;BME280;38796;42.702;23.306;2023-01-28T04:44:23;94776.06;;;-1.57;100.00
52923;BME280;38796;42.702;23.306;2023-01-28T04:46:35;94781.84;;;-1.52;100.00
52923;BME280;38796;42.702;23.306;2023-01-28T04:48:50;94782.75;;;-1.53;100.00
52923;BME280;38796;42.702;23.306;2023-01-28T04:51:07;94784.75;;;-1.58;100.00
52923;BME280;38796;42.702;23.306;2023-01-28T04:53:35;94783.22;;;-1.45;100.00
52923;BME280;38796;42.702;23.306;2023-01-28T04:55:54;94783.91;;;-1.41;100.00
52923;BME280;38796;42.702;23.306;2023-01-28T04:57:52;94781.88;;;-1.34;100.00
52923;BME280;38796;42.702;23.306;2023-01-28T04:59:50;94781.97;;;-1.18;100.00
52923;BME280;38796;42.702;23.306;2023-01-28T05:01:49;94785.97;;;-1.30;100.00
52923;BME280;38796;42.702;23.306;2023-01-28T05:03:48;94793.34;;;-1.40;100.00
52923;BME280;38796;42.702;23.306;2023-01-28T05:05:55;94784.09;;;-1.44;100.00
52923;BME280;38796;42.702;23.306;2023-01-28T05:08:08;94802.91;;;-1.42;100.00
52923;BME280;38796;42.702;23.306;2023-01-28T05:10:07;94792.66;;;-1.43;100.00
52923;BME280;38796;42.702;23.306;2023-01-28T05:12:07;94799.91;;;-1.52;100.00
52923;BME280;38796;42.702;23.306;2023-01-28T05:14:07;94804.09;;;-1.49;100.00
52923;BME280;38796;42.702;23.306;2023-01-28T05:16:19;94805.03;;;-1.50;100.00
52923;BME280;38796;42.702;23.306;2023-01-28T05:18:18;94802.91;;;-1.42;100.00
52923;BME280;38796;42.702;23.306;2023-01-28T05:20:28;94805.94;;;-1.34;100.00
52923;BME280;38796;42.702;23.306;2023-01-28T05:22:27;94799.88;;;-1.15;100.00
52923;BME280;38796;42.702;23.306;2023-01-28T05:24:39;94816.28;;;-1.16;100.00
52923;BME280;38796;42.702;23.306;2023-01-28T05:26:37;94809.06;;;-1.27;100.00
52923;BME280;38796;42.702;23.306;2023-01-28T05:28:37;94814.22;;;-1.27;100.00
52923;BME280;38796;42.702;23.306;2023-01-28T05:30:37;94805.50;;;-1.25;100.00
52923;BME280;38796;42.702;23.306;2023-01-28T05:32:35;94810.59;;;-1.23;100.00
52923;BME280;38796;42.702;23.306;2023-01-28T05:34:34;94814.56;;;-1.33;100.00
52923;BME280;38796;42.702;23.306;2023-01-28T05:36:38;94810.81;;;-1.28;100.00
52923;BME280;38796;42.702;23.306;2023-01-28T05:38:53;94815.22;;;-1.12;98.96
52923;BME280;38796;42.702;23.306;2023-01-28T05:40:52;94823.53;;;-1.06;98.18
52923;BME280;38796;42.702;23.306;2023-01-28T05:42:50;94817.22;;;-1.00;98.11
52923;BME280;38796;42.702;23.306;2023-01-28T05:45:07;94819.88;;;-1.02;97.88
52923;BME280;38796;42.702;23.306;2023-01-28T05:47:09;94828.31;;;-0.98;97.07
52923;BME280;38796;42.702;23.306;2023-01-28T05:49:24;94820.66;;;-1.00;97.38
52923;BME280;38796;42.702;23.306;2023-01-28T05:51:40;94822.00;;;-1.10;97.89
52923;BME280;38796;42.702;23.306;2023-01-28T05:53:39;94822.78;;;-1.08;98.13
52923;BME280;38796;42.702;23.306;2023-01-28T05:55:38;94821.38;;;-0.98;97.68
52923;BME280;38796;42.702;23.306;2023-01-28T05:57:36;94822.00;;;-1.10;97.91
52923;BME280;38796;42.702;23.306;2023-01-28T05:59:36;94838.63;;;-1.15;98.45
52923;BME280;38796;42.702;23.306;2023-01-28T06:01:36;94831.25;;;-1.23;98.20
52923;BME280;38796;42.702;23.306;2023-01-28T06:03:34;94833.25;;;-1.28;98.66
52923;BME280;38796;42.702;23.306;2023-01-28T06:05:33;94833.66;;;-1.37;98.78
52923;BME280;38796;42.702;23.306;2023-01-28T06:07:32;94844.16;;;-1.40;99.22
52923;BME280;38796;42.702;23.306;2023-01-28T06:09:30;94851.00;;;-1.39;99.47
52923;BME280;38796;42.702;23.306;2023-01-28T06:11:29;94846.38;;;-1.33;98.89
52923;BME280;38796;42.702;23.306;2023-01-28T06:13:31;94848.88;;;-1.31;99.15
52923;BME280;38796;42.702;23.306;2023-01-28T06:16:05;94849.03;;;-1.34;98.50
52923;BME280;38796;42.702;23.306;2023-01-28T06:18:17;94857.53;;;-1.32;99.20
52923;BME280;38796;42.702;23.306;2023-01-28T06:20:17;94861.97;;;-1.17;98.47
52923;BME280;38796;42.702;23.306;2023-01-28T06:22:17;94868.06;;;-1.18;98.55
52923;BME280;38796;42.702;23.306;2023-01-28T06:24:16;94865.75;;;-1.24;98.34
52923;BME280;38796;42.702;23.306;2023-01-28T06:26:14;94872.81;;;-1.28;98.52
52923;BME280;38796;42.702;23.306;2023-01-28T06:28:14;94876.38;;;-1.30;98.55
52923;BME280;38796;42.702;23.306;2023-01-28T06:30:13;94873.38;;;-1.21;99.16
52923;BME280;38796;42.702;23.306;2023-01-28T06:32:11;94876.78;;;-1.21;98.26
52923;BME280;38796;42.702;23.306;2023-01-28T06:34:11;94872.06;;;-1.30;97.91
52923;BME280;38796;42.702;23.306;2023-01-28T06:36:10;94877.84;;;-1.25;98.13
52923;BME280;38796;42.702;23.306;2023-01-28T06:38:08;94883.09;;;-1.26;98.27
52923;BME280;38796;42.702;23.306;2023-01-28T06:40:08;94889.16;;;-1.27;98.48
52923;BME280;38796;42.702;23.306;2023-01-28T06:42:06;94889.09;;;-1.26;99.04
52923;BME280;38796;42.702;23.306;2023-01-28T06:44:05;94901.22;;;-1.28;98.55
52923;BME280;38796;42.702;23.306;2023-01-28T06:46:04;94900.41;;;-1.28;98.53
52923;BME280;38796;42.702;23.306;2023-01-28T06:48:02;94902.06;;;-1.27;98.35
52923;BME280;38796;42.702;23.306;2023-01-28T06:50:06;94908.97;;;-1.28;98.49
52923;BME280;38796;42.702;23.306;2023-01-28T06:52:05;94913.03;;;-1.22;98.59
52923;BME280;38796;42.702;23.306;2023-01-28T06:54:03;94908.75;;;-1.23;98.61
52923;BME280;38796;42.702;23.306;2023-01-28T06:56:02;94912.25;;;-1.24;98.59
52923;BME280;38796;42.702;23.306;2023-01-28T06:58:00;94906.13;;;-1.22;98.17
52923;BME280;38796;42.702;23.306;2023-01-28T06:59:58;94911.34;;;-1.23;98.14
52923;BME280;38796;42.702;23.306;2023-01-28T07:01:57;94913.78;;;-1.20;97.93
52923;BME280;38796;42.702;23.306;2023-01-28T07:03:56;94910.44;;;-1.22;98.75
52923;BME280;38796;42.702;23.306;2023-01-28T07:05:56;94917.19;;;-1.19;98.54
52923;BME280;38796;42.702;23.306;2023-01-28T07:07:54;94918.88;;;-1.18;98.51
52923;BME280;38796;42.702;23.306;2023-01-28T07:09:53;94915.84;;;-1.09;98.27
52923;BME280;38796;42.702;23.306;2023-01-28T07:11:51;94932.19;;;-1.09;97.98
52923;BME280;38796;42.702;23.306;2023-01-28T07:13:49;94923.84;;;-1.14;97.80
52923;BME280;38796;42.702;23.306;2023-01-28T07:15:47;94926.13;;;-1.08;98.33
52923;BME280;38796;42.702;23.306;2023-01-28T07:17:46;94935.56;;;-1.07;97.92
52923;BME280;38796;42.702;23.306;2023-01-28T07:19:45;94930.09;;;-1.01;97.72
52923;BME280;38796;42.702;23.306;2023-01-28T07:21:44;94943.03;;;-1.01;97.31
52923;BME280;38796;42.702;23.306;2023-01-28T07:23:46;94936.78;;;-0.97;97.51
52923;BME280;38796;42.702;23.306;2023-01-28T07:25:44;94935.88;;;-0.95;97.26
52923;BME280;38796;42.702;23.306;2023-01-28T07:27:46;94941.97;;;-0.97;97.52
52923;BME280;38796;42.702;23.306;2023-01-28T07:29:45;94947.13;;;-0.97;97.37
52923;BME280;38796;42.702;23.306;2023-01-28T07:31:44;94942.84;;;-0.98;97.53
52923;BME280;38796;42.702;23.306;2023-01-28T07:33:42;94947.00;;;-0.93;97.41
52923;BME280;38796;42.702;23.306;2023-01-28T07:35:40;94945.28;;;-0.94;97.13
52923;BME280;38796;42.702;23.306;2023-01-28T07:37:40;94955.63;;;-0.94;96.94
52923;BME280;38796;42.702;23.306;2023-01-28T07:39:38;94958.22;;;-0.94;97.33
52923;BME280;38796;42.702;23.306;2023-01-28T07:41:37;94955.25;;;-0.87;96.58
52923;BME280;38796;42.702;23.306;2023-01-28T07:43:54;94958.34;;;-0.79;96.31
52923;BME280;38796;42.702;23.306;2023-01-28T07:45:52;94960.78;;;-0.76;96.19
52923;BME280;38796;42.702;23.306;2023-01-28T07:47:54;94961.16;;;-0.66;96.09
52923;BME280;38796;42.702;23.306;2023-01-28T07:49:52;94956.44;;;-0.58;95.48
52923;BME280;38796;42.702;23.306;2023-01-28T07:51:51;94962.38;;;-0.56;95.03
52923;BME280;38796;42.702;23.306;2023-01-28T07:53:50;94964.03;;;-0.55;94.88
52923;BME280;38796;42.702;23.306;2023-01-28T07:55:48;94965.66;;;-0.52;94.85
52923;BME280;38796;42.702;23.306;2023-01-28T07:57:48;94970.28;;;-0.59;94.89
52923;BME280;38796;42.702;23.306;2023-01-28T07:59:47;94966.25;;;-0.64;94.41
52923;BME280;38796;42.702;23.306;2023-01-28T08:01:45;94969.13;;;-0.70;94.00
52923;BME280;38796;42.702;23.306;2023-01-28T08:03:43;94970.38;;;-0.60;94.51
52923;BME280;38796;42.702;23.306;2023-01-28T08:05:44;94970.00;;;-0.53;95.28
52923;BME280;38796;42.702;23.306;2023-01-28T08:07:43;94980.94;;;-0.47;94.36
52923;BME280;38796;42.702;23.306;2023-01-28T08:09:43;94972.06;;;-0.42;93.80
52923;BME280;38796;42.702;23.306;2023-01-28T08:11:42;94979.34;;;-0.33;93.84
52923;BME280;38796;42.702;23.306;2023-01-28T08:13:40;94986.75;;;-0.42;93.59
52923;BME280;38796;42.702;23.306;2023-01-28T08:15:38;94983.09;;;-0.38;93.51
52923;BME280;38796;42.702;23.306;2023-01-28T08:17:37;94984.16;;;-0.42;93.10
52923;BME280;38796;42.702;23.306;2023-01-28T08:19:35;94986.66;;;-0.41;93.14
52923;BME280;38796;42.702;23.306;2023-01-28T08:21:34;94990.16;;;-0.42;92.73
52923;BME280;38796;42.702;23.306;2023-01-28T08:23:32;94986.41;;;-0.36;92.85
52923;BME280;38796;42.702;23.306;2023-01-28T08:25:34;94992.22;;;-0.31;93.02
52923;BME280;38796;42.702;23.306;2023-01-28T08:27:33;94991.97;;;-0.27;93.49
52923;BME280;38796;42.702;23.306;2023-01-28T08:29:31;94990.47;;;-0.31;92.97
52923;BME280;38796;42.702;23.306;2023-01-28T08:31:30;94991.75;;;-0.22;91.71
52923;BME280;38796;42.702;23.306;2023-01-28T08:33:28;95000.59;;;-0.09;91.87
52923;BME280;38796;42.702;23.306;2023-01-28T08:35:27;94983.38;;;0.08;90.94
52923;BME280;38796;42.702;23.306;2023-01-28T08:37:26;94988.00;;;0.18;90.43
52923;BME280;38796;42.702;23.306;2023-01-28T08:39:24;94991.31;;;0.54;89.16
52923;BME280;38796;42.702;23.306;2023-01-28T08:41:24;94993.53;;;0.77;88.41
52923;BME280;38796;42.702;23.306;2023-01-28T08:43:22;94997.41;;;1.02;86.41
52923;BME280;38796;42.702;23.306;2023-01-28T08:45:22;94995.66;;;1.02;86.08
52923;BME280;38796;42.702;23.306;2023-01-28T08:47:23;94994.91;;;1.16;85.63
52923;BME280;38796;42.702;23.306;2023-01-28T08:49:22;94996.00;;;1.12;85.44
52923;BME280;38796;42.702;23.306;2023-01-28T08:51:20;94997.91;;;1.24;84.72
52923;BME280;38796;42.702;23.306;2023-01-28T08:53:19;94996.97;;;1.41;83.92
52923;BME280;38796;42.702;23.306;2023-01-28T08:55:17;94997.38;;;1.33;83.98
52923;BME280;38796;42.702;23.306;2023-01-28T08:57:19;95001.91;;;1.46;83.83
52923;BME280;38796;42.702;23.306;2023-01-28T08:59:17;94999.88;;;1.51;82.07
52923;BME280;38796;42.702;23.306;2023-01-28T09:01:16;95004.50;;;1.30;82.53
52923;BME280;38796;42.702;23.306;2023-01-28T09:03:15;95005.41;;;1.29;83.86
52923;BME280;38796;42.702;23.306;2023-01-28T09:05:13;95002.31;;;1.22;84.67
52923;BME280;38796;42.702;23.306;2023-01-28T09:07:12;95000.41;;;1.41;84.44
52923;BME280;38796;42.702;23.306;2023-01-28T09:09:10;95003.50;;;1.48;83.51
52923;BME280;38796;42.702;23.306;2023-01-28T09:11:08;95000.69;;;1.51;83.52
52923;BME280;38796;42.702;23.306;2023-01-28T09:13:10;95012.78;;;1.36;83.65
52923;BME280;38796;42.702;23.306;2023-01-28T09:15:09;95016.47;;;1.32;83.65
52923;BME280;38796;42.702;23.306;2023-01-28T09:17:07;95005.84;;;1.21;84.19
52923;BME280;38796;42.702;23.306;2023-01-28T09:19:05;95004.34;;;1.17;84.63
52923;BME280;38796;42.702;23.306;2023-01-28T09:21:05;95005.59;;;0.94;84.91
52923;BME280;38796;42.702;23.306;2023-01-28T09:23:04;95015.38;;;0.89;85.35
52923;BME280;38796;42.702;23.306;2023-01-28T09:25:02;95016.25;;;0.72;86.29
52923;BME280;38796;42.702;23.306;2023-01-28T09:27:00;95012.31;;;0.65;87.46
52923;BME280;38796;42.702;23.306;2023-01-28T09:29:00;95005.97;;;0.55;86.65
52923;BME280;38796;42.702;23.306;2023-01-28T09:31:02;95008.75;;;0.67;87.04
52923;BME280;38796;42.702;23.306;2023-01-28T09:33:01;95000.22;;;0.65;87.69
52923;BME280;38796;42.702;23.306;2023-01-28T09:34:59;95000.63;;;0.58;87.71
52923;BME280;38796;42.702;23.306;2023-01-28T09:36:58;95008.31;;;0.75;87.54
52923;BME280;38796;42.702;23.306;2023-01-28T09:38:56;95011.75;;;0.76;87.83
52923;BME280;38796;42.702;23.306;2023-01-28T09:40:54;95009.84;;;0.79;87.92
52923;BME280;38796;42.702;23.306;2023-01-28T09:43:01;95000.06;;;0.84;87.76
52923;BME280;38796;42.702;23.306;2023-01-28T09:45:12;95001.94;;;0.98;86.90
52923;BME280;38796;42.702;23.306;2023-01-28T09:47:17;95008.94;;;0.80;86.69
52923;BME280;38796;42.702;23.306;2023-01-28T09:49:22;95004.66;;;0.79;88.32
52923;BME280;38796;42.702;23.306;2023-01-28T09:51:31;95006.56;;;0.76;87.81
52923;BME280;38796;42.702;23.306;2023-01-28T09:53:32;95015.59;;;0.68;88.34
52923;BME280;38796;42.702;23.306;2023-01-28T09:55:35;95011.00;;;0.58;88.77
52923;BME280;38796;42.702;23.306;2023-01-28T09:57:38;95010.06;;;0.59;89.80
52923;BME280;38796;42.702;23.306;2023-01-28T09:59:38;95009.25;;;0.58;89.83
52923;BME280;38796;42.702;23.306;2023-01-28T10:01:42;95009.06;;;0.61;89.73
52923;BME280;38796;42.702;23.306;2023-01-28T10:03:50;95005.63;;;0.61;90.04
52923;BME280;38796;42.702;23.306;2023-01-28T10:05:58;95007.81;;;0.68;89.58
52923;BME280;38796;42.702;23.306;2023-01-28T10:08:15;95014.38;;;0.91;89.33
52923;BME280;38796;42.702;23.306;2023-01-28T10:10:26;95001.16;;;0.80;89.19
52923;BME280;38796;42.702;23.306;2023-01-28T10:12:54;94999.72;;;0.59;89.18
52923;BME280;38796;42.702;23.306;2023-01-28T10:15:09;95005.38;;;0.50;90.07
52923;BME280;38796;42.702;23.306;2023-01-28T10:17:21;94999.72;;;0.59;90.02
52923;BME280;38796;42.702;23.306;2023-01-28T10:19:26;95012.31;;;0.65;90.29
52923;BME280;38796;42.702;23.306;2023-01-28T10:21:30;94996.97;;;0.62;89.82
52923;BME280;38796;42.702;23.306;2023-01-28T10:23:38;94998.66;;;0.45;88.83
52923;BME280;38796;42.702;23.306;2023-01-28T10:25:40;95001.06;;;0.66;89.23
52923;BME280;38796;42.702;23.306;2023-01-28T10:27:41;95011.75;;;0.76;89.09
52923;BME280;38796;42.702;23.306;2023-01-28T10:29:40;94998.53;;;0.64;88.58
52923;BME280;38796;42.702;23.306;2023-01-28T10:31:50;94998.53;;;0.64;89.20
52923;BME280;38796;42.702;23.306;2023-01-28T10:33:50;95000.13;;;0.67;89.17
52923;BME280;38796;42.702;23.306;2023-01-28T10:35:49;95004.22;;;0.71;88.15
52923;BME280;38796;42.702;23.306;2023-01-28T10:37:47;94990.19;;;0.75;88.75
52923;BME280;38796;42.702;23.306;2023-01-28T10:39:46;94994.56;;;0.90;87.92
52923;BME280;38796;42.702;23.306;2023-01-28T10:41:45;94991.31;;;1.03;88.01
52923;BME280;38796;42.702;23.306;2023-01-28T10:43:55;95000.41;;;1.10;87.27